首页
METAR-TAF:

METAR-TAF

机场 :

东京直升机场, 日本

纬度: 35-38N, 经度: 139-51E, 海拔: 5米

当前天气观测

该预报发布于30分钟前的00:00 UTC
风速6节,风向,在西北东北之间变化
温度 24°C
湿度 83%
气压 1015 hPa
能见度10公里或以上
少量云层高于1000英尺
散云层高于1500英尺
多云层高于4000英尺

METAR: RJTI 240000Z 36006KT 310V050 9999 FEW010 SCT015 BKN040 24/21 Q1015

时间: 09:30 (00:30 UTC)


TAF: 丢失

超过4000个机场的气象观测和天气预报(METAR&TAF报告)。

可查询的气象台以黄色和红色小点在地图上表示。

将鼠标移到小点上方,可查看气象台名称。

然后点击查看天气观测和预报。

如需切换地图:点击带黑十字的绿色按钮放大地图;点击带横线的绿色按钮缩小地图;或者点击绿色箭头查看邻近地区的地图。


METAR-TAF: